Aviation Digital Data Service (ADDS)

Output produced by METARs form (1711 UTC 29 May 2017)
found at http://www.aviationweather.gov/adds/metars/
 
ESSA 291650Z 04009KT CAVOK 14/02 Q1012 NOSIG
TAF ESSA 291130Z 2912/3012 01014KT CAVOK 
     BECMG 2920/2922 VRB02KT 
     TEMPO 3008/3012 RA 
     BECMG 3010/3012 16010KT
       
ESNX 291650Z 34012KT CAVOK 08/M07 Q1010
TAF ESNX 291300Z 2914/2920 30012KT CAVOK
       
ESCF 291650Z AUTO 26006KT 9999 FEW048/// 19/15 Q1011
ESDF 291650Z 24006KT 200V270 9999 BKN035 18/13 Q1012
TAF ESDF 291430Z 2915/2922 34006KT 9999 SCT030 
     PROB40 2915/2918 20012KT
       
ESGG 291650Z 22007KT 4000 BR -RA VV005 12/12 Q1012
TAF AMD ESGG 291628Z 2916/3012 19005KT 8000 BR BKN008 
     TEMPO 2916/3005 3000 BKN004 
     PROB40 3010/3012 RA BKN010
       
ESGJ 291650Z 11003KT 9999 BKN036 17/12 Q1012
TAF ESGJ 291430Z 2915/2924 VRB03KT 9999 BKN030
       
ESGR 291650Z AUTO 18005KT 150V220 9999 BKN043/// 19/11 Q1011
ESGT 291650Z 18008KT 9999 OVC010 15/13 Q1012
TAF ESGT 291430Z 2915/2920 18005KT 9999 BKN010 
     BECMG 2915/2917 SCT015
       
ESIB 291650Z AUTO 23009KT 9999 BKN023/// 16/14 Q1011
ESKM 291650Z AUTO 09005KT 9999 FEW055/// 18/06 Q1010
ESKN 291650Z 14010KT CAVOK 13/07 Q1012
TAF ESKN 291130Z 2912/3012 35007KT 9999 FEW045 
     BECMG 2913/2915 15010KT 
     TEMPO 3005/3008 RA
       
ESMK 291650Z VRB01KT 9999 OVC017 16/13 Q1013
TAF ESMK 291055Z 2912/2919 30008KT 9999 BKN012 
     BECMG 2912/2914 BKN015
       
ESMQ 291650Z 12007KT 9999 FEW023 17/10 Q1012
TAF ESMQ 291430Z 2915/2922 07005KT 9999 BKN030
       
ESMS 291650Z 34005KT 9999 OVC010 15/13 Q1013
TAF ESMS 291058Z 2912/3012 30010KT 9999 BKN010 
     BECMG 2912/2914 BKN015 
     BECMG 2919/2922 16005KT 
     PROB40 3002/3006 1000 BCFG BKN004 
     PROB40 3011/3012 4000 SHRA BKN012 SCT040CB
       
ESMT 291650Z 24005KT 8000 BR BKN008 14/12 Q1013
TAF AMD ESMT 291503Z 2915/2921 28006KT 9000 BR BKN008 
     TEMPO 2916/2921 BKN010
       
ESMX 291650Z 22006KT 190V260 9999 SCT030 SCT100 18/12 Q1012
TAF ESMX 291430Z 2915/2924 VRB03KT 9999 BKN025
       
ESND 291650Z AUTO 25004KT 200V340 9999 NCD 18/04 Q1010
ESNG 291650Z 36011KT CAVOK 04/M05 Q1010
TAF ESNG 291230Z 2913/2921 33010KT CAVOK
       
ESNK 291650Z 16011KT CAVOK 14/05 Q1010
TAF ESNK 291230Z 2913/2920 17010KT CAVOK
       
ESNL 291650Z AUTO 33012KT 9999 NCD 15/M07 Q1009
ESNN 291650Z 14009KT CAVOK 09/04 Q1011
TAF ESNN 291130Z 2912/2921 15012KT CAVOK
       
ESNO 291650Z 17009KT CAVOK 09/03 Q1011
TAF ESNO 291130Z 2912/2921 14010KT CAVOK
       
ESNQ 291650Z 33013KT 9999 FEW036 SCT044 03/M05 Q1010
TAF AMD ESNQ 291434Z 2915/2923 29013G23KT 9999 SCT035 
     TEMPO 2915/2917 4000 -SHSN VV014
       
ESNS 291650Z 15008KT 120V180 CAVOK 09/M02 Q1010
TAF AMD ESNS 291616Z 2916/2922 15008KT CAVOK
       
ESNU 291650Z 18009KT CAVOK 08/02 Q1011
TAF ESNU 291130Z 2912/2921 15010KT CAVOK
       
ESNV 291650Z AUTO 01007KT 310V050 9999 NCD 12/09 Q1010
ESNX 291650Z 34012KT CAVOK 08/M07 Q1010
TAF ESNX 291300Z 2914/2920 30012KT CAVOK
       
ESNZ 291650Z 32011KT CAVOK 13/M04 Q1011
TAF ESNZ 291130Z 2912/2921 30005KT CAVOK
       
ESOE 291650Z 14006KT 110V170 9999 FEW049 21/10 Q1011
TAF ESOE 291430Z 2915/2924 VRB03KT 9999 SCT050
       
ESOK 291650Z 19009KT CAVOK 18/12 Q1011
TAF ESOK 291430Z 2915/2921 18008KT 9999 SCT030
       
ESOW 291650Z 14010KT CAVOK 17/05 Q1012
TAF ESOW 291430Z 2915/2920 03008KT CAVOK
       
ESPA 291650Z 23003KT 170V260 CAVOK 07/01 Q1011
TAF COR ESPA 291420Z 2912/2921 33007KT CAVOK
       
ESPE 291650Z AUTO 01009KT 9999 NCD 08/M04 Q1011
ESSA 291650Z 04009KT CAVOK 14/02 Q1012 NOSIG
TAF ESSA 291130Z 2912/3012 01014KT CAVOK 
     BECMG 2920/2922 VRB02KT 
     TEMPO 3008/3012 RA 
     BECMG 3010/3012 16010KT
       
ESSB 291650Z 02006KT 340V070 CAVOK 15/02 Q1012
TAF ESSB 291430Z 2915/2920 36008KT CAVOK
       
ESSD 291650Z 12003KT CAVOK 18/07 Q1011
TAF ESSD 291130Z 2912/2919 08005KT 9999 FEW035
       
ESSL 291650Z 14006KT 100V180 9999 SCT040 19/12 Q1011
TAF ESSL 291430Z 2915/2922 VRB02KT 9999 BKN045 
     BECMG 2917/2920 12010KT
       
ESSP 291650Z 11010KT 9999 FEW049 16/10 Q1011
TAF ESSP 291430Z 2915/2921 05005KT 9999 BKN045 
     BECMG 2915/2917 12010KT
       
ESST 291650Z VRB01KT 9999 FEW076 SCT098 21/08 Q1010
ESSV 291650Z 05010KT CAVOK 13/03 Q1013
TAF ESSV 291430Z 2915/2922 06010KT CAVOK
       
ESTA 291650Z VRB03KT 6000 BR BKN007 14/12 Q1013
TAF AMD ESTA 291524Z 2915/2922 VRB05KT 9999 BKN008 
     TEMPO 2916/2922 SCT012 BKN015
       
ESTL 291650Z AUTO 26003KT 9999NDV OVC010/// 15/13 Q1013
ESUD 291650Z AUTO 33012KT 9999 NCD 12/M05 Q1010
ESUP 291650Z 30008KT 9999 FEW054 05/M05 Q1010
ESUT 291650Z AUTO 02010KT 9999 BKN037/// 04/M03 Q1012
ESSD 291650Z 12003KT CAVOK 18/07 Q1011
TAF ESSD 291130Z 2912/2919 08005KT 9999 FEW035
       
ESSB 291650Z 02006KT 340V070 CAVOK 15/02 Q1012
TAF ESSB 291430Z 2915/2920 36008KT CAVOK
       
ESNG 291650Z 36011KT CAVOK 04/M05 Q1010
TAF ESNG 291230Z 2913/2921 33010KT CAVOK
       
ESMT 291650Z 24005KT 8000 BR BKN008 14/12 Q1013
TAF AMD ESMT 291503Z 2915/2921 28006KT 9000 BR BKN008 
     TEMPO 2916/2921 BKN010
       
ESUT 291650Z AUTO 02010KT 9999 BKN037/// 04/M03 Q1012
ESGJ 291650Z 11003KT 9999 BKN036 17/12 Q1012
TAF ESGJ 291430Z 2915/2924 VRB03KT 9999 BKN030
       
ESPA 291650Z 23003KT 170V260 CAVOK 07/01 Q1011
TAF COR ESPA 291420Z 2912/2921 33007KT CAVOK
       
ESMQ 291650Z 12007KT 9999 FEW023 17/10 Q1012
TAF ESMQ 291430Z 2915/2922 07005KT 9999 BKN030
       
ESOK 291650Z 19009KT CAVOK 18/12 Q1011
TAF ESOK 291430Z 2915/2921 18008KT 9999 SCT030
       
ESNQ 291650Z 33013KT 9999 FEW036 SCT044 03/M05 Q1010
TAF AMD ESNQ 291434Z 2915/2923 29013G23KT 9999 SCT035 
     TEMPO 2915/2917 4000 -SHSN VV014
       
ESNK 291650Z 16011KT CAVOK 14/05 Q1010
TAF ESNK 291230Z 2913/2920 17010KT CAVOK
       
ESMK 291650Z VRB01KT 9999 OVC017 16/13 Q1013
TAF ESMK 291055Z 2912/2919 30008KT 9999 BKN012 
     BECMG 2912/2914 BKN015
       
ESMX 291650Z 22006KT 190V260 9999 SCT030 SCT100 18/12 Q1012
TAF ESMX 291430Z 2915/2924 VRB03KT 9999 BKN025
       
ESSP 291650Z 11010KT 9999 FEW049 16/10 Q1011
TAF ESSP 291430Z 2915/2921 05005KT 9999 BKN045 
     BECMG 2915/2917 12010KT
       
ESGG 291650Z 22007KT 4000 BR -RA VV005 12/12 Q1012
TAF AMD ESGG 291628Z 2916/3012 19005KT 8000 BR BKN008 
     TEMPO 2916/3005 3000 BKN004 
     PROB40 3010/3012 RA BKN010
       
ESTL 291650Z AUTO 26003KT 9999NDV OVC010/// 15/13 Q1013
ESNL 291650Z AUTO 33012KT 9999 NCD 15/M07 Q1009
ESCF 291650Z AUTO 26006KT 9999 FEW048/// 19/15 Q1011
ESKM 291650Z AUTO 09005KT 9999 FEW055/// 18/06 Q1010
ESOE 291650Z 14006KT 110V170 9999 FEW049 21/10 Q1011
TAF ESOE 291430Z 2915/2924 VRB03KT 9999 SCT050
       
ESNO 291650Z 17009KT CAVOK 09/03 Q1011
TAF ESNO 291130Z 2912/2921 14010KT CAVOK
       
ESUP 291650Z 30008KT 9999 FEW054 05/M05 Q1010
ESDF 291650Z 24006KT 200V270 9999 BKN035 18/13 Q1012
TAF ESDF 291430Z 2915/2922 34006KT 9999 SCT030 
     PROB40 2915/2918 20012KT
       
ESSL 291650Z 14006KT 100V180 9999 SCT040 19/12 Q1011
TAF ESSL 291430Z 2915/2922 VRB02KT 9999 BKN045 
     BECMG 2917/2920 12010KT
       
ESIB 291650Z AUTO 23009KT 9999 BKN023/// 16/14 Q1011
ESKN 291650Z 14010KT CAVOK 13/07 Q1012
TAF ESKN 291130Z 2912/3012 35007KT 9999 FEW045 
     BECMG 2913/2915 15010KT 
     TEMPO 3005/3008 RA
       
ESNS 291650Z 15008KT 120V180 CAVOK 09/M02 Q1010
TAF AMD ESNS 291616Z 2916/2922 15008KT CAVOK
       
ESGR 291650Z AUTO 18005KT 150V220 9999 BKN043/// 19/11 Q1011
ESUD 291650Z AUTO 33012KT 9999 NCD 12/M05 Q1010
ESMS 291650Z 34005KT 9999 OVC010 15/13 Q1013
TAF ESMS 291058Z 2912/3012 30010KT 9999 BKN010 
     BECMG 2912/2914 BKN015 
     BECMG 2919/2922 16005KT 
     PROB40 3002/3006 1000 BCFG BKN004 
     PROB40 3011/3012 4000 SHRA BKN012 SCT040CB
       
ESNN 291650Z 14009KT CAVOK 09/04 Q1011
TAF ESNN 291130Z 2912/2921 15012KT CAVOK
       
ESND 291650Z AUTO 25004KT 200V340 9999 NCD 18/04 Q1010
ESST 291650Z VRB01KT 9999 FEW076 SCT098 21/08 Q1010
ESGT 291650Z 18008KT 9999 OVC010 15/13 Q1012
TAF ESGT 291430Z 2915/2920 18005KT 9999 BKN010 
     BECMG 2915/2917 SCT015
       
ESNU 291650Z 18009KT CAVOK 08/02 Q1011
TAF ESNU 291130Z 2912/2921 15010KT CAVOK
       
ESOW 291650Z 14010KT CAVOK 17/05 Q1012
TAF ESOW 291430Z 2915/2920 03008KT CAVOK
       
ESPE 291650Z AUTO 01009KT 9999 NCD 08/M04 Q1011
ESNV 291650Z AUTO 01007KT 310V050 9999 NCD 12/09 Q1010
ESSV 291650Z 05010KT CAVOK 13/03 Q1013
TAF ESSV 291430Z 2915/2922 06010KT CAVOK